sensor_id;sensor_type;location;lat;lon;timestamp;P1;durP1;ratioP1;P2;durP2;ratioP2
65459;SDS011;52058;49.822;6.754;2023-03-14T00:01:53;4.20;;;1.30;;
65459;SDS011;52058;49.822;6.754;2023-03-14T00:04:20;6.60;;;1.23;;
65459;SDS011;52058;49.822;6.754;2023-03-14T00:06:46;3.28;;;1.15;;
65459;SDS011;52058;49.822;6.754;2023-03-14T00:09:14;4.72;;;1.20;;
65459;SDS011;52058;49.822;6.754;2023-03-14T00:11:41;4.03;;;1.65;;
65459;SDS011;52058;49.822;6.754;2023-03-14T00:14:08;4.35;;;1.83;;
65459;SDS011;52058;49.822;6.754;2023-03-14T00:16:36;6.05;;;1.60;;
65459;SDS011;52058;49.822;6.754;2023-03-14T00:19:03;4.00;;;1.15;;
65459;SDS011;52058;49.822;6.754;2023-03-14T00:21:30;5.45;;;1.48;;
65459;SDS011;52058;49.822;6.754;2023-03-14T00:23:56;3.92;;;1.40;;
65459;SDS011;52058;49.822;6.754;2023-03-14T00:26:23;4.90;;;1.50;;
65459;SDS011;52058;49.822;6.754;2023-03-14T00:28:50;5.30;;;1.55;;
65459;SDS011;52058;49.822;6.754;2023-03-14T00:31:18;7.10;;;1.83;;
65459;SDS011;52058;49.822;6.754;2023-03-14T00:33:46;5.50;;;1.45;;
65459;SDS011;52058;49.822;6.754;2023-03-14T00:36:14;4.63;;;1.65;;
65459;SDS011;52058;49.822;6.754;2023-03-14T00:38:43;4.22;;;1.33;;
65459;SDS011;52058;49.822;6.754;2023-03-14T00:41:12;4.60;;;1.48;;
65459;SDS011;52058;49.822;6.754;2023-03-14T00:43:39;7.63;;;1.52;;
65459;SDS011;52058;49.822;6.754;2023-03-14T00:46:06;6.90;;;1.52;;
65459;SDS011;52058;49.822;6.754;2023-03-14T00:48:33;6.38;;;1.50;;
65459;SDS011;52058;49.822;6.754;2023-03-14T00:51:02;5.00;;;1.42;;
65459;SDS011;52058;49.822;6.754;2023-03-14T00:53:29;5.10;;;2.17;;
65459;SDS011;52058;49.822;6.754;2023-03-14T00:55:55;3.38;;;1.42;;
65459;SDS011;52058;49.822;6.754;2023-03-14T00:58:22;6.38;;;1.77;;
65459;SDS011;52058;49.822;6.754;2023-03-14T01:00:49;5.55;;;1.60;;
65459;SDS011;52058;49.822;6.754;2023-03-14T01:03:15;7.45;;;1.77;;
65459;SDS011;52058;49.822;6.754;2023-03-14T01:05:42;9.13;;;1.70;;
65459;SDS011;52058;49.822;6.754;2023-03-14T01:08:10;7.30;;;1.48;;
65459;SDS011;52058;49.822;6.754;2023-03-14T01:10:38;11.65;;;1.85;;
65459;SDS011;52058;49.822;6.754;2023-03-14T01:13:06;5.28;;;1.55;;
65459;SDS011;52058;49.822;6.754;2023-03-14T01:15:32;4.78;;;1.42;;
65459;SDS011;52058;49.822;6.754;2023-03-14T01:17:59;7.88;;;1.65;;
65459;SDS011;52058;49.822;6.754;2023-03-14T01:20:26;4.78;;;1.38;;
65459;SDS011;52058;49.822;6.754;2023-03-14T01:22:53;6.80;;;1.40;;
65459;SDS011;52058;49.822;6.754;2023-03-14T01:25:21;6.70;;;1.58;;
65459;SDS011;52058;49.822;6.754;2023-03-14T01:27:47;5.40;;;1.38;;
65459;SDS011;52058;49.822;6.754;2023-03-14T01:30:14;5.70;;;1.45;;
65459;SDS011;52058;49.822;6.754;2023-03-14T01:32:41;7.82;;;1.77;;
65459;SDS011;52058;49.822;6.754;2023-03-14T01:35:08;5.07;;;1.63;;
65459;SDS011;52058;49.822;6.754;2023-03-14T01:37:34;7.72;;;1.60;;
65459;SDS011;52058;49.822;6.754;2023-03-14T01:40:01;6.93;;;1.95;;
65459;SDS011;52058;49.822;6.754;2023-03-14T01:42:32;5.80;;;1.30;;
65459;SDS011;52058;49.822;6.754;2023-03-14T01:44:59;5.65;;;1.30;;
65459;SDS011;52058;49.822;6.754;2023-03-14T01:47:27;3.38;;;1.20;;
65459;SDS011;52058;49.822;6.754;2023-03-14T01:49:55;7.50;;;1.42;;
65459;SDS011;52058;49.822;6.754;2023-03-14T01:52:25;4.50;;;1.40;;
65459;SDS011;52058;49.822;6.754;2023-03-14T01:54:57;8.00;;;1.73;;
65459;SDS011;52058;49.822;6.754;2023-03-14T01:57:29;4.65;;;1.90;;
65459;SDS011;52058;49.822;6.754;2023-03-14T01:59:59;3.05;;;1.20;;
65459;SDS011;52058;49.822;6.754;2023-03-14T02:02:35;5.97;;;1.77;;
65459;SDS011;52058;49.822;6.754;2023-03-14T02:05:02;7.32;;;1.63;;
65459;SDS011;52058;49.822;6.754;2023-03-14T02:07:30;6.97;;;1.60;;
65459;SDS011;52058;49.822;6.754;2023-03-14T02:10:02;4.50;;;1.30;;
65459;SDS011;52058;49.822;6.754;2023-03-14T02:12:31;4.22;;;1.20;;
65459;SDS011;52058;49.822;6.754;2023-03-14T02:15:00;4.85;;;1.20;;
65459;SDS011;52058;49.822;6.754;2023-03-14T02:17:26;3.88;;;1.02;;
65459;SDS011;52058;49.822;6.754;2023-03-14T02:20:06;2.83;;;1.10;;
65459;SDS011;52058;49.822;6.754;2023-03-14T02:22:40;4.38;;;1.10;;
65459;SDS011;52058;49.822;6.754;2023-03-14T02:25:09;3.78;;;1.30;;
65459;SDS011;52058;49.822;6.754;2023-03-14T02:27:43;9.85;;;2.45;;
65459;SDS011;52058;49.822;6.754;2023-03-14T02:30:12;3.97;;;1.27;;
65459;SDS011;52058;49.822;6.754;2023-03-14T02:32:41;5.65;;;1.40;;
65459;SDS011;52058;49.822;6.754;2023-03-14T02:35:11;4.18;;;1.27;;
65459;SDS011;52058;49.822;6.754;2023-03-14T02:37:41;3.33;;;1.05;;
65459;SDS011;52058;49.822;6.754;2023-03-14T02:40:12;4.00;;;1.05;;
65459;SDS011;52058;49.822;6.754;2023-03-14T02:42:38;6.80;;;1.30;;
65459;SDS011;52058;49.822;6.754;2023-03-14T02:48:04;5.72;;;1.33;;
65459;SDS011;52058;49.822;6.754;2023-03-14T02:50:33;6.63;;;1.77;;
65459;SDS011;52058;49.822;6.754;2023-03-14T02:53:00;6.25;;;1.92;;
65459;SDS011;52058;49.822;6.754;2023-03-14T02:55:27;4.22;;;1.13;;
65459;SDS011;52058;49.822;6.754;2023-03-14T02:57:54;5.07;;;1.25;;
65459;SDS011;52058;49.822;6.754;2023-03-14T03:00:20;6.63;;;1.20;;
65459;SDS011;52058;49.822;6.754;2023-03-14T03:02:48;5.50;;;1.00;;
65459;SDS011;52058;49.822;6.754;2023-03-14T03:05:15;6.40;;;1.40;;
65459;SDS011;52058;49.822;6.754;2023-03-14T03:07:42;2.45;;;1.10;;
65459;SDS011;52058;49.822;6.754;2023-03-14T03:10:09;5.45;;;1.27;;
65459;SDS011;52058;49.822;6.754;2023-03-14T03:12:36;2.92;;;1.23;;
65459;SDS011;52058;49.822;6.754;2023-03-14T03:15:02;6.00;;;1.50;;
65459;SDS011;52058;49.822;6.754;2023-03-14T03:17:29;7.13;;;1.10;;
65459;SDS011;52058;49.822;6.754;2023-03-14T03:19:57;5.47;;;1.30;;
65459;SDS011;52058;49.822;6.754;2023-03-14T03:22:24;8.13;;;1.20;;
65459;SDS011;52058;49.822;6.754;2023-03-14T03:24:50;6.60;;;1.85;;
65459;SDS011;52058;49.822;6.754;2023-03-14T03:27:17;5.22;;;1.17;;
65459;SDS011;52058;49.822;6.754;2023-03-14T03:29:43;4.20;;;1.20;;
65459;SDS011;52058;49.822;6.754;2023-03-14T03:32:10;4.15;;;0.90;;
65459;SDS011;52058;49.822;6.754;2023-03-14T03:34:37;2.72;;;1.00;;
65459;SDS011;52058;49.822;6.754;2023-03-14T03:37:04;3.30;;;1.17;;
65459;SDS011;52058;49.822;6.754;2023-03-14T03:39:31;2.30;;;0.70;;
65459;SDS011;52058;49.822;6.754;2023-03-14T03:41:57;4.03;;;1.10;;
65459;SDS011;52058;49.822;6.754;2023-03-14T03:44:24;3.45;;;0.93;;
65459;SDS011;52058;49.822;6.754;2023-03-14T03:46:51;2.00;;;0.68;;
65459;SDS011;52058;49.822;6.754;2023-03-14T03:49:17;3.78;;;0.70;;
65459;SDS011;52058;49.822;6.754;2023-03-14T03:51:44;5.53;;;0.90;;
65459;SDS011;52058;49.822;6.754;2023-03-14T03:54:12;2.05;;;0.70;;
65459;SDS011;52058;49.822;6.754;2023-03-14T03:56:38;3.67;;;1.13;;
65459;SDS011;52058;49.822;6.754;2023-03-14T03:59:05;3.00;;;0.70;;
65459;SDS011;52058;49.822;6.754;2023-03-14T04:01:31;2.05;;;0.90;;
65459;SDS011;52058;49.822;6.754;2023-03-14T04:03:58;2.95;;;1.00;;
65459;SDS011;52058;49.822;6.754;2023-03-14T04:06:24;3.25;;;0.80;;
65459;SDS011;52058;49.822;6.754;2023-03-14T04:08:51;3.05;;;1.48;;
65459;SDS011;52058;49.822;6.754;2023-03-14T04:11:19;2.90;;;1.20;;
65459;SDS011;52058;49.822;6.754;2023-03-14T04:13:45;4.13;;;0.93;;
65459;SDS011;52058;49.822;6.754;2023-03-14T04:16:13;5.28;;;1.10;;
65459;SDS011;52058;49.822;6.754;2023-03-14T04:18:42;4.20;;;0.88;;
65459;SDS011;52058;49.822;6.754;2023-03-14T04:21:09;3.08;;;0.90;;
65459;SDS011;52058;49.822;6.754;2023-03-14T04:23:35;2.72;;;0.90;;
65459;SDS011;52058;49.822;6.754;2023-03-14T04:26:02;3.50;;;1.10;;
65459;SDS011;52058;49.822;6.754;2023-03-14T04:28:31;1.58;;;0.50;;
65459;SDS011;52058;49.822;6.754;2023-03-14T04:30:57;2.95;;;0.85;;
65459;SDS011;52058;49.822;6.754;2023-03-14T04:33:24;3.58;;;0.90;;
65459;SDS011;52058;49.822;6.754;2023-03-14T04:35:53;4.20;;;0.70;;
65459;SDS011;52058;49.822;6.754;2023-03-14T04:38:20;2.92;;;0.68;;
65459;SDS011;52058;49.822;6.754;2023-03-14T04:40:47;2.65;;;0.73;;
65459;SDS011;52058;49.822;6.754;2023-03-14T04:43:14;2.58;;;0.60;;
65459;SDS011;52058;49.822;6.754;2023-03-14T04:45:42;1.77;;;0.70;;
65459;SDS011;52058;49.822;6.754;2023-03-14T04:48:09;5.05;;;1.00;;
65459;SDS011;52058;49.822;6.754;2023-03-14T04:50:36;3.22;;;0.85;;
65459;SDS011;52058;49.822;6.754;2023-03-14T04:53:02;0.70;;;0.70;;
65459;SDS011;52058;49.822;6.754;2023-03-14T04:55:29;1.25;;;0.70;;
65459;SDS011;52058;49.822;6.754;2023-03-14T04:57:57;3.58;;;0.90;;
65459;SDS011;52058;49.822;6.754;2023-03-14T05:00:23;2.78;;;0.57;;
65459;SDS011;52058;49.822;6.754;2023-03-14T05:02:51;2.47;;;0.70;;
65459;SDS011;52058;49.822;6.754;2023-03-14T05:05:18;3.13;;;1.00;;
65459;SDS011;52058;49.822;6.754;2023-03-14T05:07:45;4.72;;;1.02;;
65459;SDS011;52058;49.822;6.754;2023-03-14T05:10:11;3.67;;;0.80;;
65459;SDS011;52058;49.822;6.754;2023-03-14T05:12:38;2.80;;;0.80;;
65459;SDS011;52058;49.822;6.754;2023-03-14T05:15:05;2.42;;;0.88;;
65459;SDS011;52058;49.822;6.754;2023-03-14T05:17:33;3.47;;;0.95;;
65459;SDS011;52058;49.822;6.754;2023-03-14T05:20:01;1.70;;;1.00;;
65459;SDS011;52058;49.822;6.754;2023-03-14T05:22:33;2.42;;;0.85;;
65459;SDS011;52058;49.822;6.754;2023-03-14T05:24:59;1.48;;;0.70;;
65459;SDS011;52058;49.822;6.754;2023-03-14T05:27:26;5.57;;;1.20;;
65459;SDS011;52058;49.822;6.754;2023-03-14T05:29:52;3.70;;;1.35;;
65459;SDS011;52058;49.822;6.754;2023-03-14T05:32:19;1.73;;;0.90;;
65459;SDS011;52058;49.822;6.754;2023-03-14T05:34:46;2.55;;;0.88;;
65459;SDS011;52058;49.822;6.754;2023-03-14T05:37:14;2.05;;;0.70;;
65459;SDS011;52058;49.822;6.754;2023-03-14T05:39:40;4.22;;;0.80;;
65459;SDS011;52058;49.822;6.754;2023-03-14T05:42:07;2.65;;;0.75;;
65459;SDS011;52058;49.822;6.754;2023-03-14T05:44:33;3.72;;;1.13;;
65459;SDS011;52058;49.822;6.754;2023-03-14T05:47:00;2.95;;;0.82;;
65459;SDS011;52058;49.822;6.754;2023-03-14T05:49:27;3.38;;;0.85;;
65459;SDS011;52058;49.822;6.754;2023-03-14T05:51:53;2.42;;;1.20;;
65459;SDS011;52058;49.822;6.754;2023-03-14T05:54:21;4.70;;;1.20;;
65459;SDS011;52058;49.822;6.754;2023-03-14T05:56:48;2.85;;;0.75;;
65459;SDS011;52058;49.822;6.754;2023-03-14T05:59:14;2.95;;;1.00;;
65459;SDS011;52058;49.822;6.754;2023-03-14T06:01:41;2.85;;;0.98;;
65459;SDS011;52058;49.822;6.754;2023-03-14T06:04:07;3.63;;;1.00;;
65459;SDS011;52058;49.822;6.754;2023-03-14T06:06:34;1.60;;;0.85;;
65459;SDS011;52058;49.822;6.754;2023-03-14T06:09:01;3.05;;;0.88;;
65459;SDS011;52058;49.822;6.754;2023-03-14T06:11:29;1.95;;;0.82;;
65459;SDS011;52058;49.822;6.754;2023-03-14T06:13:56;3.40;;;0.98;;
65459;SDS011;52058;49.822;6.754;2023-03-14T06:16:23;6.43;;;1.13;;
65459;SDS011;52058;49.822;6.754;2023-03-14T06:18:49;1.65;;;0.90;;
65459;SDS011;52058;49.822;6.754;2023-03-14T06:21:17;5.60;;;1.17;;
65459;SDS011;52058;49.822;6.754;2023-03-14T06:23:44;2.00;;;0.80;;
65459;SDS011;52058;49.822;6.754;2023-03-14T06:26:11;5.57;;;1.33;;
65459;SDS011;52058;49.822;6.754;2023-03-14T06:28:39;1.60;;;0.88;;
65459;SDS011;52058;49.822;6.754;2023-03-14T06:31:06;2.47;;;0.80;;
65459;SDS011;52058;49.822;6.754;2023-03-14T06:33:32;1.60;;;0.70;;
65459;SDS011;52058;49.822;6.754;2023-03-14T06:35:59;0.88;;;0.82;;
65459;SDS011;52058;49.822;6.754;2023-03-14T06:38:25;5.88;;;0.98;;
65459;SDS011;52058;49.822;6.754;2023-03-14T06:40:52;1.27;;;0.88;;
65459;SDS011;52058;49.822;6.754;2023-03-14T06:43:19;2.25;;;0.70;;
65459;SDS011;52058;49.822;6.754;2023-03-14T06:45:47;4.40;;;1.30;;
65459;SDS011;52058;49.822;6.754;2023-03-14T06:48:13;2.15;;;0.70;;
65459;SDS011;52058;49.822;6.754;2023-03-14T06:50:40;1.90;;;0.80;;
65459;SDS011;52058;49.822;6.754;2023-03-14T06:53:08;2.95;;;0.70;;
65459;SDS011;52058;49.822;6.754;2023-03-14T06:55:34;1.73;;;0.77;;
65459;SDS011;52058;49.822;6.754;2023-03-14T06:58:01;2.10;;;1.00;;
65459;SDS011;52058;49.822;6.754;2023-03-14T07:00:28;3.17;;;0.98;;
65459;SDS011;52058;49.822;6.754;2023-03-14T07:02:56;1.45;;;0.80;;
65459;SDS011;52058;49.822;6.754;2023-03-14T07:05:22;2.97;;;0.80;;
65459;SDS011;52058;49.822;6.754;2023-03-14T07:07:49;2.17;;;0.80;;
65459;SDS011;52058;49.822;6.754;2023-03-14T07:10:16;1.98;;;1.33;;
65459;SDS011;52058;49.822;6.754;2023-03-14T07:12:43;3.50;;;1.80;;
65459;SDS011;52058;49.822;6.754;2023-03-14T07:15:09;3.85;;;0.88;;
65459;SDS011;52058;49.822;6.754;2023-03-14T07:17:36;1.48;;;0.85;;
65459;SDS011;52058;49.822;6.754;2023-03-14T07:20:05;3.17;;;0.90;;
65459;SDS011;52058;49.822;6.754;2023-03-14T07:22:34;0.70;;;0.60;;
65459;SDS011;52058;49.822;6.754;2023-03-14T07:25:00;2.05;;;0.90;;
65459;SDS011;52058;49.822;6.754;2023-03-14T07:27:27;4.97;;;1.75;;
65459;SDS011;52058;49.822;6.754;2023-03-14T07:29:54;1.52;;;0.60;;
65459;SDS011;52058;49.822;6.754;2023-03-14T07:32:20;2.10;;;0.70;;
65459;SDS011;52058;49.822;6.754;2023-03-14T07:34:47;1.50;;;0.73;;
65459;SDS011;52058;49.822;6.754;2023-03-14T07:37:15;2.40;;;1.00;;
65459;SDS011;52058;49.822;6.754;2023-03-14T07:39:42;2.67;;;0.93;;
65459;SDS011;52058;49.822;6.754;2023-03-14T07:42:08;2.08;;;1.10;;
65459;SDS011;52058;49.822;6.754;2023-03-14T07:44:36;1.20;;;0.80;;
65459;SDS011;52058;49.822;6.754;2023-03-14T07:47:02;1.88;;;0.70;;
65459;SDS011;52058;49.822;6.754;2023-03-14T07:49:29;2.88;;;0.80;;
65459;SDS011;52058;49.822;6.754;2023-03-14T07:51:56;2.50;;;1.15;;
65459;SDS011;52058;49.822;6.754;2023-03-14T07:54:24;1.83;;;0.50;;
65459;SDS011;52058;49.822;6.754;2023-03-14T07:56:51;1.35;;;0.70;;
65459;SDS011;52058;49.822;6.754;2023-03-14T07:59:18;2.28;;;0.98;;
65459;SDS011;52058;49.822;6.754;2023-03-14T08:01:44;0.82;;;0.60;;
65459;SDS011;52058;49.822;6.754;2023-03-14T08:04:11;2.25;;;1.00;;
65459;SDS011;52058;49.822;6.754;2023-03-14T08:40:59;1.75;;;0.60;;
65459;SDS011;52058;49.822;6.754;2023-03-14T08:43:27;1.17;;;0.70;;
65459;SDS011;52058;49.822;6.754;2023-03-14T08:45:57;0.93;;;0.70;;
65459;SDS011;52058;49.822;6.754;2023-03-14T08:48:24;1.08;;;0.68;;
65459;SDS011;52058;49.822;6.754;2023-03-14T08:50:50;0.68;;;0.68;;
65459;SDS011;52058;49.822;6.754;2023-03-14T08:53:17;1.42;;;0.52;;
65459;SDS011;52058;49.822;6.754;2023-03-14T08:55:43;0.70;;;0.70;;
65459;SDS011;52058;49.822;6.754;2023-03-14T08:58:11;0.77;;;0.68;;
65459;SDS011;52058;49.822;6.754;2023-03-14T09:00:38;1.20;;;0.90;;
65459;SDS011;52058;49.822;6.754;2023-03-14T09:03:04;0.80;;;0.73;;
65459;SDS011;52058;49.822;6.754;2023-03-14T09:05:32;0.85;;;0.70;;
65459;SDS011;52058;49.822;6.754;2023-03-14T09:07:59;2.13;;;1.15;;
65459;SDS011;52058;49.822;6.754;2023-03-14T09:10:26;4.63;;;0.85;;
65459;SDS011;52058;49.822;6.754;2023-03-14T09:12:52;1.58;;;0.88;;
65459;SDS011;52058;49.822;6.754;2023-03-14T09:15:20;3.97;;;0.90;;
65459;SDS011;52058;49.822;6.754;2023-03-14T09:17:47;0.60;;;0.60;;
65459;SDS011;52058;49.822;6.754;2023-03-14T09:20:13;0.90;;;0.60;;
65459;SDS011;52058;49.822;6.754;2023-03-14T09:22:40;1.20;;;0.50;;
65459;SDS011;52058;49.822;6.754;2023-03-14T09:25:07;0.63;;;0.55;;
65459;SDS011;52058;49.822;6.754;2023-03-14T09:27:35;0.90;;;0.55;;
65459;SDS011;52058;49.822;6.754;2023-03-14T09:30:02;1.00;;;0.50;;
65459;SDS011;52058;49.822;6.754;2023-03-14T09:32:30;1.10;;;0.60;;
65459;SDS011;52058;49.822;6.754;2023-03-14T09:34:57;1.02;;;0.60;;
65459;SDS011;52058;49.822;6.754;2023-03-14T09:37:24;0.50;;;0.50;;
65459;SDS011;52058;49.822;6.754;2023-03-14T09:39:50;0.85;;;0.52;;
65459;SDS011;52058;49.822;6.754;2023-03-14T09:42:18;0.57;;;0.50;;
65459;SDS011;52058;49.822;6.754;2023-03-14T09:44:52;2.75;;;0.65;;
65459;SDS011;52058;49.822;6.754;2023-03-14T09:47:20;0.85;;;0.70;;
65459;SDS011;52058;49.822;6.754;2023-03-14T09:49:50;1.50;;;0.93;;
65459;SDS011;52058;49.822;6.754;2023-03-14T09:52:17;0.88;;;0.60;;
65459;SDS011;52058;49.822;6.754;2023-03-14T09:54:48;0.60;;;0.60;;
65459;SDS011;52058;49.822;6.754;2023-03-14T09:57:17;1.00;;;0.90;;
65459;SDS011;52058;49.822;6.754;2023-03-14T09:59:46;1.20;;;0.60;;
65459;SDS011;52058;49.822;6.754;2023-03-14T10:02:16;0.60;;;0.60;;
65459;SDS011;52058;49.822;6.754;2023-03-14T10:04:45;1.75;;;0.60;;
65459;SDS011;52058;49.822;6.754;2023-03-14T10:07:14;0.77;;;0.50;;
65459;SDS011;52058;49.822;6.754;2023-03-14T10:09:44;0.40;;;0.40;;
65459;SDS011;52058;49.822;6.754;2023-03-14T10:14:44;0.40;;;0.40;;
65459;SDS011;52058;49.822;6.754;2023-03-14T10:17:13;0.40;;;0.40;;
65459;SDS011;52058;49.822;6.754;2023-03-14T10:19:50;0.40;;;0.40;;
65459;SDS011;52058;49.822;6.754;2023-03-14T10:22:20;1.00;;;0.50;;
65459;SDS011;52058;49.822;6.754;2023-03-14T10:24:51;0.30;;;0.30;;
65459;SDS011;52058;49.822;6.754;2023-03-14T10:27:19;0.40;;;0.40;;
65459;SDS011;52058;49.822;6.754;2023-03-14T10:29:51;0.40;;;0.40;;
65459;SDS011;52058;49.822;6.754;2023-03-14T10:32:19;0.45;;;0.45;;
65459;SDS011;52058;49.822;6.754;2023-03-14T10:35:03;0.50;;;0.50;;
65459;SDS011;52058;49.822;6.754;2023-03-14T10:37:34;0.40;;;0.40;;
65459;SDS011;52058;49.822;6.754;2023-03-14T10:40:02;1.80;;;0.47;;
65459;SDS011;52058;49.822;6.754;2023-03-14T10:42:30;1.10;;;0.60;;
65459;SDS011;52058;49.822;6.754;2023-03-14T10:45:00;1.45;;;0.68;;
65459;SDS011;52058;49.822;6.754;2023-03-14T10:47:28;2.50;;;0.70;;
65459;SDS011;52058;49.822;6.754;2023-03-14T10:49:56;2.35;;;0.70;;
65459;SDS011;52058;49.822;6.754;2023-03-14T10:52:24;0.73;;;0.60;;
65459;SDS011;52058;49.822;6.754;2023-03-14T10:54:56;0.60;;;0.60;;
65459;SDS011;52058;49.822;6.754;2023-03-14T10:59:51;0.52;;;0.50;;
65459;SDS011;52058;49.822;6.754;2023-03-14T11:05:20;0.70;;;0.70;;
65459;SDS011;52058;49.822;6.754;2023-03-14T11:07:55;0.85;;;0.70;;
65459;SDS011;52058;49.822;6.754;2023-03-14T11:10:29;0.75;;;0.75;;
65459;SDS011;52058;49.822;6.754;2023-03-14T11:13:01;0.60;;;0.60;;
65459;SDS011;52058;49.822;6.754;2023-03-14T11:15:34;1.00;;;0.90;;
65459;SDS011;52058;49.822;6.754;2023-03-14T11:18:12;0.60;;;0.60;;
65459;SDS011;52058;49.822;6.754;2023-03-14T11:21:02;1.55;;;0.80;;
65459;SDS011;52058;49.822;6.754;2023-03-14T11:23:39;0.80;;;0.80;;
65459;SDS011;52058;49.822;6.754;2023-03-14T11:26:16;0.88;;;0.80;;
65459;SDS011;52058;49.822;6.754;2023-03-14T11:28:52;1.48;;;0.80;;
65459;SDS011;52058;49.822;6.754;2023-03-14T11:31:24;0.73;;;0.73;;
65459;SDS011;52058;49.822;6.754;2023-03-14T11:33:54;0.80;;;0.80;;
65459;SDS011;52058;49.822;6.754;2023-03-14T11:38:56;0.77;;;0.75;;
65459;SDS011;52058;49.822;6.754;2023-03-14T11:41:27;1.20;;;0.75;;
65459;SDS011;52058;49.822;6.754;2023-03-14T11:43:58;1.00;;;1.00;;
65459;SDS011;52058;49.822;6.754;2023-03-14T11:46:28;0.77;;;0.77;;
65459;SDS011;52058;49.822;6.754;2023-03-14T11:49:01;1.45;;;0.70;;
65459;SDS011;52058;49.822;6.754;2023-03-14T11:51:33;0.90;;;0.80;;
65459;SDS011;52058;49.822;6.754;2023-03-14T11:54:02;2.33;;;1.10;;
65459;SDS011;52058;49.822;6.754;2023-03-14T11:56:41;0.90;;;0.70;;
65459;SDS011;52058;49.822;6.754;2023-03-14T11:59:15;0.60;;;0.60;;
65459;SDS011;52058;49.822;6.754;2023-03-14T12:01:49;1.52;;;0.80;;
65459;SDS011;52058;49.822;6.754;2023-03-14T12:04:21;1.17;;;0.70;;
65459;SDS011;52058;49.822;6.754;2023-03-14T12:06:57;1.10;;;0.95;;
65459;SDS011;52058;49.822;6.754;2023-03-14T12:09:29;1.13;;;0.77;;
65459;SDS011;52058;49.822;6.754;2023-03-14T12:11:57;1.05;;;0.95;;
65459;SDS011;52058;49.822;6.754;2023-03-14T12:14:27;1.08;;;0.80;;
65459;SDS011;52058;49.822;6.754;2023-03-14T12:16:56;2.25;;;1.10;;
65459;SDS011;52058;49.822;6.754;2023-03-14T12:19:28;0.93;;;0.90;;
65459;SDS011;52058;49.822;6.754;2023-03-14T12:21:58;1.65;;;0.98;;
65459;SDS011;52058;49.822;6.754;2023-03-14T12:24:32;0.90;;;0.90;;
65459;SDS011;52058;49.822;6.754;2023-03-14T12:27:03;2.22;;;1.00;;
65459;SDS011;52058;49.822;6.754;2023-03-14T12:29:31;1.38;;;1.10;;
65459;SDS011;52058;49.822;6.754;2023-03-14T12:32:09;2.10;;;0.85;;
65459;SDS011;52058;49.822;6.754;2023-03-14T12:34:48;0.98;;;0.95;;
65459;SDS011;52058;49.822;6.754;2023-03-14T12:37:26;2.15;;;0.90;;
65459;SDS011;52058;49.822;6.754;2023-03-14T12:40:16;2.13;;;0.90;;
65459;SDS011;52058;49.822;6.754;2023-03-14T12:42:56;2.38;;;0.82;;
65459;SDS011;52058;49.822;6.754;2023-03-14T12:45:26;1.63;;;1.13;;
65459;SDS011;52058;49.822;6.754;2023-03-14T12:48:03;0.70;;;0.70;;
65459;SDS011;52058;49.822;6.754;2023-03-14T12:50:36;1.73;;;0.90;;
65459;SDS011;52058;49.822;6.754;2023-03-14T12:56:09;2.10;;;0.90;;
65459;SDS011;52058;49.822;6.754;2023-03-14T12:58:47;0.85;;;0.77;;
65459;SDS011;52058;49.822;6.754;2023-03-14T13:01:26;1.58;;;0.85;;
65459;SDS011;52058;49.822;6.754;2023-03-14T13:03:53;0.60;;;0.60;;
65459;SDS011;52058;49.822;6.754;2023-03-14T13:12:25;1.90;;;0.98;;
65459;SDS011;52058;49.822;6.754;2023-03-14T13:14:59;1.45;;;0.70;;
65459;SDS011;52058;49.822;6.754;2023-03-14T13:17:30;2.63;;;0.80;;
65459;SDS011;52058;49.822;6.754;2023-03-14T13:20:00;4.90;;;2.00;;
65459;SDS011;52058;49.822;6.754;2023-03-14T13:22:31;4.35;;;1.60;;
65459;SDS011;52058;49.822;6.754;2023-03-14T13:25:02;2.22;;;1.20;;
65459;SDS011;52058;49.822;6.754;2023-03-14T13:27:32;2.47;;;1.10;;
65459;SDS011;52058;49.822;6.754;2023-03-14T13:30:11;3.10;;;1.27;;
65459;SDS011;52058;49.822;6.754;2023-03-14T13:32:42;5.10;;;2.40;;
65459;SDS011;52058;49.822;6.754;2023-03-14T13:35:14;2.45;;;1.23;;
65459;SDS011;52058;49.822;6.754;2023-03-14T13:37:42;2.63;;;1.20;;
65459;SDS011;52058;49.822;6.754;2023-03-14T13:40:18;2.17;;;1.13;;
65459;SDS011;52058;49.822;6.754;2023-03-14T13:42:46;2.03;;;1.30;;
65459;SDS011;52058;49.822;6.754;2023-03-14T13:45:14;1.70;;;1.20;;
65459;SDS011;52058;49.822;6.754;2023-03-14T13:47:41;2.70;;;1.05;;
65459;SDS011;52058;49.822;6.754;2023-03-14T13:50:13;1.30;;;0.98;;
65459;SDS011;52058;49.822;6.754;2023-03-14T13:52:42;2.17;;;1.10;;
65459;SDS011;52058;49.822;6.754;2023-03-14T13:55:13;1.20;;;1.10;;
65459;SDS011;52058;49.822;6.754;2023-03-14T13:57:44;4.30;;;1.00;;
65459;SDS011;52058;49.822;6.754;2023-03-14T14:00:21;1.88;;;1.13;;
65459;SDS011;52058;49.822;6.754;2023-03-14T14:02:51;3.05;;;0.98;;
65459;SDS011;52058;49.822;6.754;2023-03-14T14:05:19;1.17;;;0.90;;
65459;SDS011;52058;49.822;6.754;2023-03-14T14:07:46;2.05;;;0.80;;
65459;SDS011;52058;49.822;6.754;2023-03-14T14:10:13;2.03;;;1.88;;
65459;SDS011;52058;49.822;6.754;2023-03-14T14:12:41;1.67;;;0.90;;
65459;SDS011;52058;49.822;6.754;2023-03-14T14:15:15;1.45;;;0.82;;
65459;SDS011;52058;49.822;6.754;2023-03-14T14:17:47;1.27;;;0.85;;
65459;SDS011;52058;49.822;6.754;2023-03-14T14:20:20;3.95;;;2.10;;
65459;SDS011;52058;49.822;6.754;2023-03-14T14:22:48;2.15;;;1.00;;
65459;SDS011;52058;49.822;6.754;2023-03-14T14:25:15;2.55;;;0.93;;
65459;SDS011;52058;49.822;6.754;2023-03-14T14:27:43;2.28;;;0.73;;
65459;SDS011;52058;49.822;6.754;2023-03-14T14:30:27;3.38;;;0.90;;
65459;SDS011;52058;49.822;6.754;2023-03-14T14:35:55;4.45;;;1.10;;
65459;SDS011;52058;49.822;6.754;2023-03-14T14:38:23;1.83;;;0.80;;
65459;SDS011;52058;49.822;6.754;2023-03-14T14:40:51;1.13;;;0.98;;
65459;SDS011;52058;49.822;6.754;2023-03-14T14:43:21;1.98;;;0.80;;
65459;SDS011;52058;49.822;6.754;2023-03-14T14:45:50;1.98;;;1.02;;
65459;SDS011;52058;49.822;6.754;2023-03-14T14:48:20;3.25;;;1.20;;
65459;SDS011;52058;49.822;6.754;2023-03-14T14:50:51;2.70;;;1.75;;
65459;SDS011;52058;49.822;6.754;2023-03-14T14:53:23;3.20;;;1.75;;
65459;SDS011;52058;49.822;6.754;2023-03-14T14:55:53;1.85;;;1.00;;
65459;SDS011;52058;49.822;6.754;2023-03-14T14:58:23;1.95;;;0.90;;
65459;SDS011;52058;49.822;6.754;2023-03-14T15:00:52;3.33;;;1.05;;
65459;SDS011;52058;49.822;6.754;2023-03-14T15:03:21;2.67;;;0.80;;
65459;SDS011;52058;49.822;6.754;2023-03-14T15:05:49;4.32;;;1.05;;
65459;SDS011;52058;49.822;6.754;2023-03-14T15:08:16;1.55;;;0.90;;
65459;SDS011;52058;49.822;6.754;2023-03-14T15:10:43;2.15;;;1.00;;
65459;SDS011;52058;49.822;6.754;2023-03-14T15:13:09;2.22;;;0.90;;
65459;SDS011;52058;49.822;6.754;2023-03-14T15:15:36;4.45;;;1.00;;
65459;SDS011;52058;49.822;6.754;2023-03-14T15:18:08;1.83;;;1.00;;
65459;SDS011;52058;49.822;6.754;2023-03-14T15:20:39;2.38;;;0.80;;
65459;SDS011;52058;49.822;6.754;2023-03-14T15:23:09;2.03;;;1.10;;
65459;SDS011;52058;49.822;6.754;2023-03-14T15:25:37;2.25;;;1.33;;
65459;SDS011;52058;49.822;6.754;2023-03-14T15:28:07;3.25;;;1.00;;
65459;SDS011;52058;49.822;6.754;2023-03-14T15:30:39;2.13;;;0.80;;
65459;SDS011;52058;49.822;6.754;2023-03-14T15:33:06;1.45;;;0.95;;
65459;SDS011;52058;49.822;6.754;2023-03-14T15:35:33;3.63;;;1.20;;
65459;SDS011;52058;49.822;6.754;2023-03-14T15:38:00;6.25;;;0.90;;
65459;SDS011;52058;49.822;6.754;2023-03-14T15:40:29;2.67;;;0.90;;
65459;SDS011;52058;49.822;6.754;2023-03-14T15:42:56;1.23;;;0.60;;
65459;SDS011;52058;49.822;6.754;2023-03-14T15:45:22;2.55;;;1.13;;
65459;SDS011;52058;49.822;6.754;2023-03-14T15:47:49;3.88;;;1.13;;
65459;SDS011;52058;49.822;6.754;2023-03-14T15:50:15;3.80;;;1.20;;
65459;SDS011;52058;49.822;6.754;2023-03-14T15:52:44;2.47;;;0.80;;
65459;SDS011;52058;49.822;6.754;2023-03-14T15:55:10;2.17;;;0.93;;
65459;SDS011;52058;49.822;6.754;2023-03-14T15:57:40;2.25;;;0.85;;